Time;durP1;ratioP1;P1;durP2;ratioP2;P2;SDS_P1;SDS_P2;PMS_P1;PMS_P2;Temp;Humidity;BMP_temperature;BMP_pressure;BME280_temperature;BME280_humidity;BME280_pressure;Samples;Min_cycle;Max_cycle;Signal;HPM_P1;HPM_P2
2023/01/30 00:02:38;;;;;;;34.73;17.03;;;;;4.60;101536.00;;;;10078046;29;20251;-80
2023/01/30 00:07:40;;;;;;;34.37;17.20;;;;;4.60;101533.00;;;;10094156;29;20260;-80
2023/01/30 00:12:42;;;;;;;36.27;17.60;;;;;4.60;101524.00;;;;10093656;29;20552;-80
2023/01/30 00:17:44;;;;;;;31.63;17.10;;;;;4.60;101525.00;;;;10079945;29;20234;-81
2023/01/30 00:22:46;;;;;;;33.97;18.07;;;;;4.60;101506.00;;;;10108955;29;20254;-80
2023/01/30 00:28:01;;;;;;;31.13;16.07;;;;;4.60;101489.00;;;;10063821;29;20651;-80
2023/01/30 00:33:03;;;;;;;30.53;18.20;;;;;4.60;101497.00;;;;10070395;29;20259;-80
2023/01/30 00:38:05;;;;;;;28.30;15.93;;;;;4.60;101481.00;;;;10090895;29;20203;-80
2023/01/30 00:48:31;;;;;;;34.80;17.27;;;;;4.60;101479.00;;;;10094049;29;20206;-80
2023/01/30 00:53:33;;;;;;;27.67;15.10;;;;;4.60;101473.00;;;;10074278;29;20294;-80
2023/01/30 00:58:35;;;;;;;32.40;16.80;;;;;4.60;101464.00;;;;10122979;29;20207;-80
2023/01/30 01:03:37;;;;;;;33.60;17.47;;;;;4.60;101496.00;;;;10126677;29;20219;-80
2023/01/30 01:08:39;;;;;;;32.13;16.47;;;;;4.70;101496.00;;;;10115174;29;20227;-80
2023/01/30 01:13:41;;;;;;;26.53;15.27;;;;;4.70;101494.00;;;;10091260;29;20293;-81
2023/01/30 01:18:43;;;;;;;27.43;14.77;;;;;4.80;101484.00;;;;10078189;29;20570;-80
2023/01/30 01:23:50;;;;;;;30.87;15.77;;;;;4.80;101474.00;;;;10098373;29;20231;-80
2023/01/30 01:28:56;;;;;;;30.67;15.63;;;;;4.90;101465.00;;;;10078334;29;20625;-80
2023/01/30 01:33:58;;;;;;;32.23;16.07;;;;;4.90;101464.00;;;;10113917;29;20754;-79
2023/01/30 01:39:02;;;;;;;30.40;14.87;;;;;5.00;101461.00;;;;10078372;29;20211;-80
2023/01/30 01:44:07;;;;;;;26.73;15.07;;;;;5.00;101452.00;;;;10078515;29;20206;-80
2023/01/30 01:49:31;;;;;;;26.10;14.73;;;;;5.00;101460.00;;;;10060413;29;20259;-80
2023/01/30 01:54:38;;;;;;;30.20;15.10;;;;;5.10;101456.00;;;;10099397;29;20234;-80
2023/01/30 01:59:47;;;;;;;25.87;14.90;;;;;5.10;101460.00;;;;10083127;29;20258;-80
2023/01/30 02:05:01;;;;;;;27.93;15.00;;;;;5.10;101436.00;;;;10104404;29;20247;-80
2023/01/30 02:10:07;;;;;;;24.73;13.20;;;;;5.10;101452.00;;;;10084837;29;20438;-80
2023/01/30 02:15:09;;;;;;;27.33;14.27;;;;;5.20;101443.00;;;;10070979;29;20299;-80
2023/01/30 02:20:39;;;;;;;24.97;13.80;;;;;5.20;101439.00;;;;10102143;29;20216;-80
2023/01/30 02:26:25;;;;;;;24.17;14.37;;;;;5.20;101433.00;;;;10096092;29;20648;-80
2023/01/30 02:31:37;;;;;;;29.37;14.17;;;;;5.20;101404.00;;;;10111243;29;20214;-80
2023/01/30 02:37:04;;;;;;;26.40;13.57;;;;;5.30;101378.00;;;;10096481;29;20207;-80
2023/01/30 02:42:55;;;;;;;19.57;11.27;;;;;5.40;101380.00;;;;10096031;29;20215;-79
2023/01/30 02:48:23;;;;;;;26.47;12.57;;;;;5.40;101364.00;;;;10105022;29;20199;-80
2023/01/30 02:53:30;;;;;;;23.90;13.87;;;;;5.50;101359.00;;;;10084713;29;20303;-80
2023/01/30 02:58:40;;;;;;;25.33;13.23;;;;;5.50;101348.00;;;;10086802;29;20207;-80
2023/01/30 03:03:51;;;;;;;22.97;13.63;;;;;5.50;101369.00;;;;10085964;29;20663;-80
2023/01/30 03:09:25;;;;;;;20.77;12.93;;;;;5.50;101351.00;;;;10107446;29;20227;-79
2023/01/30 03:14:38;;;;;;;21.07;12.50;;;;;5.60;101367.00;;;;10080159;29;20671;-80
2023/01/30 03:19:41;;;;;;;23.03;11.83;;;;;5.60;101364.00;;;;10119746;29;20227;-80
2023/01/30 03:24:44;;;;;;;25.30;11.40;;;;;5.70;101333.00;;;;10079296;29;20634;-80
2023/01/30 03:29:47;;;;;;;23.30;13.87;;;;;5.60;101351.00;;;;10109828;29;20196;-80
2023/01/30 03:34:49;;;;;;;22.30;12.23;;;;;5.70;101345.00;;;;10094874;29;20294;-80
2023/01/30 03:39:52;;;;;;;23.07;13.00;;;;;5.70;101346.00;;;;10108621;29;20701;-80
2023/01/30 03:44:54;;;;;;;20.63;12.07;;;;;5.80;101355.00;;;;10095351;29;20607;-80
2023/01/30 03:49:56;;;;;;;21.83;11.50;;;;;5.80;101344.00;;;;10099193;29;20222;-80
2023/01/30 03:54:58;;;;;;;18.00;10.47;;;;;5.90;101335.00;;;;10094429;29;20215;-80
2023/01/30 04:00:00;;;;;;;20.90;11.27;;;;;5.80;101335.00;;;;10094289;29;20212;-79
2023/01/30 04:05:05;;;;;;;19.50;10.43;;;;;5.70;101329.00;;;;10093025;29;20200;-80
2023/01/30 04:10:07;;;;;;;16.27;9.27;;;;;5.70;101331.00;;;;10091965;29;20327;-79
2023/01/30 04:15:10;;;;;;;22.17;11.07;;;;;5.70;101342.00;;;;10111800;29;20215;-80
2023/01/30 04:20:35;;;;;;;17.33;10.40;;;;;5.70;101344.00;;;;10084348;29;20707;-78
2023/01/30 04:25:38;;;;;;;18.80;9.83;;;;;5.70;101333.00;;;;10108714;29;20207;-78
2023/01/30 04:30:41;;;;;;;18.70;9.27;;;;;5.70;101333.00;;;;10092256;29;20226;-79
2023/01/30 04:36:08;;;;;;;16.37;9.87;;;;;5.70;101336.00;;;;10095457;29;20207;-78
2023/01/30 04:41:10;;;;;;;16.50;9.80;;;;;5.70;101317.00;;;;10078824;29;20228;-79
2023/01/30 04:46:15;;;;;;;13.70;9.63;;;;;5.70;101324.00;;;;10082930;29;20206;-79
2023/01/30 04:51:18;;;;;;;16.13;8.50;;;;;5.80;101313.00;;;;10071500;29;20203;-79
2023/01/30 04:56:20;;;;;;;13.40;8.67;;;;;5.80;101306.00;;;;10113703;29;20207;-78
2023/01/30 05:01:33;;;;;;;19.17;8.77;;;;;5.80;101312.00;;;;10092517;29;20220;-79
2023/01/30 05:06:35;;;;;;;21.97;8.90;;;;;5.80;101323.00;;;;10100167;29;20215;-79
2023/01/30 05:11:37;;;;;;;19.60;8.97;;;;;5.80;101319.00;;;;10103699;29;20199;-79
2023/01/30 05:16:39;;;;;;;18.03;8.97;;;;;5.90;101316.00;;;;10116362;29;20267;-79
2023/01/30 05:21:41;;;;;;;15.17;8.43;;;;;5.90;101327.00;;;;10099772;29;20224;-78
2023/01/30 05:26:43;;;;;;;11.40;7.50;;;;;6.00;101308.00;;;;10091563;29;20206;-78
2023/01/30 05:31:45;;;;;;;13.77;8.20;;;;;6.00;101300.00;;;;10084724;29;20200;-79
2023/01/30 05:36:47;;;;;;;16.70;8.40;;;;;6.10;101323.00;;;;10099637;29;20259;-78
2023/01/30 05:41:49;;;;;;;14.50;8.53;;;;;6.10;101322.00;;;;10116377;29;20223;-79
2023/01/30 05:46:51;;;;;;;14.50;8.00;;;;;6.10;101315.00;;;;10121040;29;20211;-79
2023/01/30 05:51:53;;;;;;;15.20;8.30;;;;;6.20;101322.00;;;;10067563;29;20235;-78
2023/01/30 05:56:55;;;;;;;13.03;7.73;;;;;6.20;101314.00;;;;10098277;29;20204;-79
2023/01/30 06:01:57;;;;;;;14.97;7.87;;;;;6.20;101331.00;;;;10098285;29;20299;-78
2023/01/30 06:06:59;;;;;;;12.93;6.93;;;;;6.20;101334.00;;;;10113298;29;20227;-78
2023/01/30 06:12:01;;;;;;;11.80;6.73;;;;;6.30;101348.00;;;;10098959;29;20612;-79
2023/01/30 06:17:02;;;;;;;12.57;7.03;;;;;6.30;101347.00;;;;10097763;29;20641;-79
2023/01/30 06:22:04;;;;;;;14.87;6.87;;;;;6.30;101372.00;;;;10112353;29;20251;-78
2023/01/30 06:27:06;;;;;;;13.03;6.67;;;;;6.40;101369.00;;;;10090045;29;20218;-78
2023/01/30 06:32:09;;;;;;;13.93;7.00;;;;;6.40;101380.00;;;;10112988;29;20230;-79
2023/01/30 06:37:11;;;;;;;12.20;6.77;;;;;6.40;101367.00;;;;10092949;29;20267;-78
2023/01/30 06:42:13;;;;;;;8.27;5.67;;;;;6.40;101377.00;;;;10081331;29;20227;-78
2023/01/30 06:47:14;;;;;;;12.50;6.53;;;;;6.40;101366.00;;;;10111632;29;20259;-79
2023/01/30 06:52:16;;;;;;;11.57;6.60;;;;;6.40;101377.00;;;;10080032;29;20287;-78
2023/01/30 06:57:18;;;;;;;13.03;6.17;;;;;6.50;101400.00;;;;10080303;29;20199;-78
2023/01/30 07:02:20;;;;;;;13.90;5.77;;;;;6.40;101378.00;;;;10112417;29;20211;-78
2023/01/30 07:07:22;;;;;;;7.37;4.93;;;;;6.40;101382.00;;;;10111641;29;20274;-78
2023/01/30 07:12:25;;;;;;;11.90;5.93;;;;;6.30;101392.00;;;;10127021;29;20195;-78
2023/01/30 07:17:27;;;;;;;9.93;5.57;;;;;6.30;101372.00;;;;10060643;29;20303;-79
2023/01/30 07:22:29;;;;;;;9.00;5.63;;;;;6.30;101374.00;;;;10072158;29;20690;-79
2023/01/30 07:27:31;;;;;;;12.47;5.83;;;;;6.40;101378.00;;;;10097123;29;20655;-79
2023/01/30 07:32:33;;;;;;;13.13;4.93;;;;;6.50;101384.00;;;;10092346;29;20203;-79
2023/01/30 07:37:35;;;;;;;10.50;4.70;;;;;6.40;101395.00;;;;10095034;29;20279;-78
2023/01/30 07:42:37;;;;;;;8.03;4.77;;;;;6.40;101395.00;;;;10096216;29;20215;-78
2023/01/30 07:47:39;;;;;;;13.77;4.70;;;;;6.40;101416.00;;;;10128672;29;20211;-79
2023/01/30 07:52:41;;;;;;;8.80;4.50;;;;;6.50;101419.00;;;;10097532;29;20203;-79
2023/01/30 07:57:43;;;;;;;9.20;4.60;;;;;6.70;101425.00;;;;10080886;29;20290;-79
2023/01/30 08:02:45;;;;;;;14.10;4.80;;;;;6.80;101423.00;;;;10113934;29;20746;-79
2023/01/30 08:07:47;;;;;;;15.20;4.70;;;;;6.90;101432.00;;;;10126807;29;20246;-79
2023/01/30 08:12:50;;;;;;;11.37;4.17;;;;;7.00;101425.00;;;;10093072;29;20199;-78
2023/01/30 08:17:56;;;;;;;11.97;4.13;;;;;7.10;101431.00;;;;10110458;29;20196;-78
2023/01/30 08:22:59;;;;;;;11.43;3.97;;;;;7.20;101416.00;;;;10065169;29;20230;-79
2023/01/30 08:28:02;;;;;;;6.50;3.23;;;;;7.40;101435.00;;;;10078562;29;20230;-79
2023/01/30 08:33:04;;;;;;;6.47;2.97;;;;;7.40;101436.00;;;;10093566;29;20214;-80
2023/01/30 08:38:07;;;;;;;11.30;3.33;;;;;7.30;101461.00;;;;10102979;29;20207;-79
2023/01/30 08:43:09;;;;;;;9.37;3.27;;;;;7.30;101466.00;;;;10057620;29;20254;-79
2023/01/30 08:48:11;;;;;;;9.50;2.17;;;;;7.40;101450.00;;;;10095515;29;20208;-78
2023/01/30 08:53:13;;;;;;;15.33;2.70;;;;;7.60;101456.00;;;;10109483;29;20842;-79
2023/01/30 08:58:16;;;;;;;8.97;2.57;;;;;7.80;101457.00;;;;10079109;29;20271;-80
2023/01/30 09:03:18;;;;;;;14.83;2.93;;;;;8.10;101484.00;;;;10124500;29;20235;-79
2023/01/30 09:08:20;;;;;;;8.90;2.37;;;;;8.40;101498.00;;;;10079560;29;20754;-80
2023/01/30 09:13:22;;;;;;;8.10;2.83;;;;;8.50;101491.00;;;;10112388;29;20682;-79
2023/01/30 09:18:24;;;;;;;8.07;1.97;;;;;8.70;101488.00;;;;10085193;29;20294;-80
2023/01/30 09:23:26;;;;;;;7.77;1.83;;;;;8.90;101489.00;;;;10083938;29;20255;-80
2023/01/30 09:28:28;;;;;;;8.63;2.00;;;;;8.90;101492.00;;;;10069709;29;20267;-79
2023/01/30 09:33:31;;;;;;;6.87;1.90;;;;;9.20;101494.00;;;;10109988;29;20213;-80
2023/01/30 09:38:32;;;;;;;9.53;2.63;;;;;9.40;101488.00;;;;10081712;29;20199;-80
2023/01/30 09:43:34;;;;;;;9.60;2.00;;;;;9.50;101501.00;;;;10084368;29;20235;-80
2023/01/30 09:49:01;;;;;;;8.77;2.00;;;;;9.50;101512.00;;;;10115574;29;20212;-80
2023/01/30 09:54:09;;;;;;;9.40;1.83;;;;;9.60;101526.00;;;;10114083;29;20238;-80
2023/01/30 09:59:28;;;;;;;11.57;1.73;;;;;9.60;101543.00;;;;10102912;29;20207;-80
2023/01/30 10:04:33;;;;;;;12.87;3.20;;;;;9.70;101543.00;;;;10106447;29;20224;-79
2023/01/30 10:10:05;;;;;;;10.63;1.77;;;;;9.90;101551.00;;;;10097882;29;20671;-80
2023/01/30 10:15:44;;;;;;;12.30;1.97;;;;;10.00;101553.00;;;;10089578;29;20291;-81
2023/01/30 10:21:14;;;;;;;12.73;2.27;;;;;10.10;101554.00;;;;10113275;29;20215;-81
2023/01/30 10:26:20;;;;;;;14.57;2.20;;;;;10.20;101564.00;;;;10105457;29;20207;-81
2023/01/30 10:31:27;;;;;;;14.63;2.33;;;;;10.30;101575.00;;;;10098065;29;20234;-81
2023/01/30 10:36:50;;;;;;;9.57;1.83;;;;;10.20;101576.00;;;;10111840;29;20192;-81
2023/01/30 10:42:05;;;;;;;8.23;2.10;;;;;10.00;101555.00;;;;10119063;29;20219;-79
2023/01/30 10:47:46;;;;;;;10.47;1.93;;;;;10.20;101576.00;;;;10107982;29;20298;-78
2023/01/30 10:52:55;;;;;;;12.80;2.10;;;;;11.00;101594.00;;;;10096356;29;20207;-81
2023/01/30 10:58:18;;;;;;;4.63;1.53;;;;;10.10;101584.00;;;;10096783;29;20259;-81
2023/01/30 11:04:05;;;;;;;7.70;1.60;;;;;10.10;101595.00;;;;10095551;29;20231;-81
2023/01/30 11:09:07;;;;;;;10.60;2.60;;;;;10.00;101596.00;;;;10116692;29;20227;-81
2023/01/30 11:14:11;;;;;;;9.73;2.23;;;;;9.90;101590.00;;;;10111045;29;20297;-81
2023/01/30 11:19:16;;;;;;;7.37;2.00;;;;;10.00;101573.00;;;;10106125;29;20708;-82
2023/01/30 11:24:37;;;;;;;9.83;2.67;;;;;10.00;101593.00;;;;10111559;29;20223;-80
2023/01/30 11:29:39;;;;;;;8.23;1.83;;;;;9.80;101596.00;;;;10087854;29;20192;-82
2023/01/30 11:34:42;;;;;;;9.43;2.10;;;;;9.60;101586.00;;;;10092762;29;20211;-81
2023/01/30 11:39:50;;;;;;;11.47;1.80;;;;;9.60;101581.00;;;;10091782;29;20203;-82
2023/01/30 11:44:59;;;;;;;14.23;2.10;;;;;9.70;101598.00;;;;10089907;29;20227;-82
2023/01/30 11:50:18;;;;;;;10.80;2.40;;;;;9.60;101580.00;;;;10088382;29;20290;-79
2023/01/30 11:55:38;;;;;;;10.40;1.97;;;;;9.50;101549.00;;;;10079056;29;20203;-82
2023/01/30 12:00:45;;;;;;;10.47;1.90;;;;;9.40;101564.00;;;;10064336;29;20297;-82
2023/01/30 12:05:47;;;;;;;10.33;1.63;;;;;9.40;101577.00;;;;10063882;29;20279;-81
2023/01/30 12:10:53;;;;;;;9.00;2.07;;;;;9.80;101585.00;;;;10062877;29;20513;-81
2023/01/30 12:16:37;;;;;;;8.93;2.17;;;;;9.80;101569.00;;;;10109604;29;20203;-82
2023/01/30 12:21:48;;;;;;;16.37;2.47;;;;;9.70;101574.00;;;;10088450;29;20290;-82
2023/01/30 12:27:02;;;;;;;7.47;2.03;;;;;9.70;101592.00;;;;10108396;29;20207;-82
2023/01/30 12:32:10;;;;;;;7.73;2.37;;;;;9.60;101579.00;;;;10090976;29;20199;-82
2023/01/30 12:37:46;;;;;;;13.83;2.40;;;;;9.50;101585.00;;;;10055225;29;20226;-82
2023/01/30 12:42:51;;;;;;;11.03;2.67;;;;;9.30;101589.00;;;;10082333;29;20263;-82
2023/01/30 12:48:23;;;;;;;7.57;2.13;;;;;9.20;101563.00;;;;10101914;29;20302;-80
2023/01/30 12:53:53;;;;;;;8.57;2.17;;;;;9.20;101594.00;;;;10106649;29;20730;-82
2023/01/30 12:59:14;;;;;;;10.93;1.87;;;;;9.20;101588.00;;;;10091595;29;20231;-82
2023/01/30 13:05:13;;;;;;;9.43;2.93;;;;;9.00;101591.00;;;;10083923;29;20215;-82
2023/01/30 13:10:29;;;;;;;8.93;2.07;;;;;9.10;101590.00;;;;10050145;29;20231;-82
2023/01/30 13:15:42;;;;;;;7.97;1.77;;;;;9.80;101613.00;;;;10085967;29;20215;-82
2023/01/30 13:21:30;;;;;;;10.17;2.20;;;;;10.00;101614.00;;;;10099477;29;20251;-83
2023/01/30 13:26:36;;;;;;;8.07;1.77;;;;;10.70;101612.00;;;;9903465;29;20706;-81
2023/01/30 13:31:50;;;;;;;10.80;2.43;;;;;10.50;101609.00;;;;10093600;29;20218;-82
2023/01/30 13:36:59;;;;;;;10.20;2.03;;;;;10.30;101583.00;;;;10091639;29;20207;-82
2023/01/30 13:42:07;;;;;;;7.13;1.97;;;;;10.00;101605.00;;;;10084219;29;20911;-82
2023/01/30 13:47:18;;;;;;;9.83;3.03;;;;;9.70;101615.00;;;;10083058;29;20204;-82
2023/01/30 13:52:40;;;;;;;9.80;2.17;;;;;9.30;101624.00;;;;10098376;29;20702;-82
2023/01/30 13:57:59;;;;;;;11.70;2.20;;;;;9.20;101637.00;;;;10099201;29;20222;-82
2023/01/30 14:03:07;;;;;;;12.23;2.90;;;;;9.10;101639.00;;;;10113439;29;20243;-83
2023/01/30 14:08:16;;;;;;;10.37;2.77;;;;;9.20;101638.00;;;;10067611;29;20703;-82
2023/01/30 14:13:18;;;;;;;13.50;2.53;;;;;9.20;101672.00;;;;10082472;29;20286;-81
2023/01/30 14:18:27;;;;;;;8.00;1.50;;;;;9.20;101672.00;;;;10083800;29;20600;-81
2023/01/30 14:23:32;;;;;;;12.43;2.73;;;;;9.20;101673.00;;;;10097694;29;20220;-82
2023/01/30 14:28:46;;;;;;;4.50;1.90;;;;;9.10;101676.00;;;;10097597;29;20298;-82
2023/01/30 14:33:50;;;;;;;8.73;2.20;;;;;9.00;101690.00;;;;10082537;29;20206;-82
2023/01/30 14:39:39;;;;;;;10.70;2.93;;;;;9.10;101691.00;;;;10073983;29;20681;-82
2023/01/30 14:45:12;;;;;;;8.60;2.10;;;;;9.30;101704.00;;;;10107771;29;20302;-81
2023/01/30 14:50:21;;;;;;;6.03;1.83;;;;;9.10;101708.00;;;;10081241;29;20286;-81
2023/01/30 14:55:28;;;;;;;12.37;2.17;;;;;8.90;101694.00;;;;10095873;29;20226;-81
2023/01/30 15:00:35;;;;;;;12.77;2.50;;;;;8.80;101717.00;;;;10107909;29;20248;-81
2023/01/30 15:05:43;;;;;;;17.00;2.47;;;;;9.10;101736.00;;;;10080260;29;20230;-82
2023/01/30 15:10:48;;;;;;;5.67;1.90;;;;;8.70;101764.00;;;;10074691;29;20215;-82
2023/01/30 15:16:38;;;;;;;5.50;1.17;;;;;8.60;101751.00;;;;10080256;29;20204;-82
2023/01/30 15:21:50;;;;;;;9.37;2.43;;;;;8.40;101767.00;;;;10087347;29;20552;-81
2023/01/30 15:27:37;;;;;;;6.20;1.97;;;;;8.20;101773.00;;;;10094198;29;20199;-82
2023/01/30 15:32:41;;;;;;;13.07;2.20;;;;;8.00;101790.00;;;;10079548;29;20238;-82
2023/01/30 15:37:49;;;;;;;9.60;2.17;;;;;7.90;101791.00;;;;10095453;29;20235;-81
2023/01/30 15:43:00;;;;;;;8.17;2.40;;;;;7.90;101793.00;;;;10106597;29;20252;-83
2023/01/30 15:48:36;;;;;;;9.70;1.93;;;;;7.90;101808.00;;;;10096578;29;20204;-81
2023/01/30 15:53:42;;;;;;;11.20;2.43;;;;;7.80;101808.00;;;;10083405;29;20705;-82
2023/01/30 15:58:44;;;;;;;14.27;3.07;;;;;7.70;101829.00;;;;10110756;29;20207;-82
2023/01/30 16:03:49;;;;;;;11.03;1.77;;;;;7.60;101838.00;;;;10093733;29;20318;-82
2023/01/30 16:09:02;;;;;;;12.67;2.20;;;;;7.60;101850.00;;;;10079251;29;20215;-81
2023/01/30 16:14:06;;;;;;;14.77;2.30;;;;;7.50;101856.00;;;;10056176;29;20619;-82
2023/01/30 16:19:15;;;;;;;10.97;2.47;;;;;7.50;101865.00;;;;10072526;29;20234;-81
2023/01/30 16:24:23;;;;;;;9.67;2.30;;;;;7.50;101871.00;;;;10096218;29;20227;-81
2023/01/30 16:29:27;;;;;;;13.77;3.03;;;;;7.40;101889.00;;;;10071441;29;20207;-81
2023/01/30 16:34:33;;;;;;;14.77;2.90;;;;;7.40;101890.00;;;;10122054;29;20226;-81
2023/01/30 16:39:36;;;;;;;13.40;2.70;;;;;7.30;101913.00;;;;10085190;29;20211;-82
2023/01/30 16:44:38;;;;;;;14.90;3.00;;;;;7.30;101918.00;;;;10076732;29;20233;-81
2023/01/30 16:49:45;;;;;;;9.80;3.00;;;;;7.30;101923.00;;;;10080965;29;20701;-81
2023/01/30 16:54:59;;;;;;;15.67;2.77;;;;;7.30;101932.00;;;;10096451;29;20216;-81
2023/01/30 17:00:22;;;;;;;22.60;3.40;;;;;7.20;101920.00;;;;10104302;29;20208;-81
2023/01/30 17:05:28;;;;;;;16.87;2.67;;;;;7.20;101939.00;;;;10084417;29;20235;-81
2023/01/30 17:10:39;;;;;;;16.83;2.40;;;;;7.10;101946.00;;;;10083483;29;20213;-82
2023/01/30 17:15:42;;;;;;;9.20;2.40;;;;;7.10;101964.00;;;;10092780;29;20211;-81
2023/01/30 17:20:49;;;;;;;9.60;2.10;;;;;7.10;101962.00;;;;10085301;29;20211;-81
2023/01/30 17:25:51;;;;;;;16.03;3.07;;;;;7.10;101970.00;;;;10111238;29;20310;-81
2023/01/30 17:30:53;;;;;;;17.73;3.23;;;;;7.00;101970.00;;;;10093182;29;20211;-81
2023/01/30 17:35:59;;;;;;;10.43;3.27;;;;;6.80;101980.00;;;;10086441;29;20202;-81
2023/01/30 17:41:02;;;;;;;13.30;1.90;;;;;6.70;101991.00;;;;10102095;29;20200;-81
2023/01/30 17:46:04;;;;;;;12.70;2.20;;;;;6.70;101996.00;;;;10101411;29;20233;-82
2023/01/30 17:51:07;;;;;;;13.00;2.40;;;;;6.60;102005.00;;;;10069796;29;20762;-82
2023/01/30 17:56:22;;;;;;;9.80;2.67;;;;;6.50;102008.00;;;;10093085;29;20250;-82
2023/01/30 18:01:23;;;;;;;9.17;2.80;;;;;6.40;102011.00;;;;10085649;29;20282;-81
2023/01/30 18:06:28;;;;;;;13.20;2.70;;;;;6.20;102018.00;;;;10101298;29;20224;-81
2023/01/30 18:11:31;;;;;;;16.10;2.70;;;;;6.10;102032.00;;;;10077075;29;20964;-82
2023/01/30 18:16:33;;;;;;;11.20;2.43;;;;;6.00;102028.00;;;;10068224;29;20693;-81
2023/01/30 18:21:37;;;;;;;11.73;2.80;;;;;5.80;102038.00;;;;10083621;29;20659;-81
2023/01/30 18:26:40;;;;;;;9.27;2.50;;;;;5.80;102034.00;;;;10090946;29;20227;-82
2023/01/30 18:31:42;;;;;;;12.93;2.87;;;;;5.80;102041.00;;;;10098423;29;20204;-81
2023/01/30 18:36:44;;;;;;;19.80;3.07;;;;;5.70;102048.00;;;;10111312;29;20231;-81
2023/01/30 18:41:46;;;;;;;11.17;2.30;;;;;5.50;102059.00;;;;10101614;29;20255;-81
2023/01/30 18:46:49;;;;;;;10.30;2.80;;;;;5.30;102051.00;;;;10115008;29;20212;-82
2023/01/30 18:51:50;;;;;;;14.40;2.93;;;;;5.10;102057.00;;;;10115497;29;20322;-82
2023/01/30 18:56:52;;;;;;;9.97;2.60;;;;;5.00;102062.00;;;;10097980;29;20211;-81
2023/01/30 19:01:54;;;;;;;15.00;2.90;;;;;5.10;102069.00;;;;10097683;29;20227;-81
2023/01/30 19:06:56;;;;;;;8.07;2.70;;;;;5.20;102078.00;;;;10081843;29;20230;-82
2023/01/30 19:17:19;;;;;;;11.43;2.97;;;;;4.90;102101.00;;;;10096892;29;20203;-81
2023/01/30 19:22:20;;;;;;;10.83;3.03;;;;;4.80;102113.00;;;;10097093;29;20668;-82
2023/01/30 19:27:23;;;;;;;14.67;3.37;;;;;4.80;102106.00;;;;10097405;29;20200;-82
2023/01/30 19:32:25;;;;;;;11.10;2.60;;;;;4.80;102115.00;;;;10059121;29;20211;-82
2023/01/30 19:37:27;;;;;;;9.40;3.20;;;;;4.80;102120.00;;;;10065049;29;20208;-81
2023/01/30 19:42:29;;;;;;;13.23;3.70;;;;;4.80;102121.00;;;;10057714;29;20230;-82
2023/01/30 19:47:31;;;;;;;6.50;3.07;;;;;4.90;102125.00;;;;10102151;29;20218;-81
2023/01/30 19:52:32;;;;;;;10.90;2.77;;;;;4.90;102121.00;;;;10095478;29;20210;-82
2023/01/30 19:57:34;;;;;;;21.50;3.40;;;;;4.90;102134.00;;;;10080576;29;20255;-82
2023/01/30 20:02:37;;;;;;;22.20;3.90;;;;;4.90;102129.00;;;;10080505;29;20738;-81
2023/01/30 20:07:39;;;;;;;17.13;3.97;;;;;4.90;102127.00;;;;10081120;29;20231;-81
2023/01/30 20:12:41;;;;;;;17.27;3.93;;;;;4.90;102136.00;;;;10068281;29;20754;-81
2023/01/30 20:17:43;;;;;;;20.70;4.47;;;;;5.00;102143.00;;;;10095719;29;20204;-81
2023/01/30 20:22:44;;;;;;;15.10;4.40;;;;;5.10;102130.00;;;;10072782;29;20226;-81
2023/01/30 20:27:46;;;;;;;18.23;4.00;;;;;5.20;102141.00;;;;10111169;29;20199;-81
2023/01/30 20:32:53;;;;;;;15.13;4.60;;;;;5.20;102143.00;;;;10064771;29;20232;-81
2023/01/30 20:37:55;;;;;;;23.53;4.23;;;;;5.20;102134.00;;;;10050047;29;20200;-81
2023/01/30 20:42:57;;;;;;;15.93;4.37;;;;;5.20;102134.00;;;;10078660;29;20226;-81
2023/01/30 20:47:59;;;;;;;23.60;5.73;;;;;5.20;102134.00;;;;10110645;29;20627;-81
2023/01/30 20:53:01;;;;;;;21.33;4.97;;;;;5.10;102138.00;;;;10123533;29;20255;-81
2023/01/30 20:58:03;;;;;;;18.80;5.20;;;;;5.10;102140.00;;;;10096749;29;20744;-81
2023/01/30 21:03:05;;;;;;;15.90;4.10;;;;;5.10;102132.00;;;;10096167;29;20211;-81
2023/01/30 21:08:07;;;;;;;19.90;4.60;;;;;5.10;102126.00;;;;10093914;29;20304;-81
2023/01/30 21:13:09;;;;;;;13.80;4.57;;;;;4.90;102121.00;;;;10123774;29;20327;-82
2023/01/30 21:18:11;;;;;;;14.23;4.50;;;;;4.70;102131.00;;;;10108377;29;20212;-81
2023/01/30 21:23:13;;;;;;;14.10;4.83;;;;;4.50;102131.00;;;;10132185;29;20227;-81
2023/01/30 21:28:15;;;;;;;14.00;5.23;;;;;4.30;102127.00;;;;10086656;29;20210;-82
2023/01/30 21:33:17;;;;;;;16.80;4.73;;;;;4.20;102112.00;;;;10085439;29;20591;-81
2023/01/30 21:43:40;;;;;;;17.93;5.43;;;;;4.00;102113.00;;;;10100784;29;20250;-81
2023/01/30 21:48:42;;;;;;;19.07;5.50;;;;;3.80;102116.00;;;;10070005;29;20204;-81
2023/01/30 21:53:44;;;;;;;22.80;5.70;;;;;3.70;102117.00;;;;10116048;29;20210;-81
2023/01/30 21:58:46;;;;;;;20.63;5.27;;;;;3.60;102113.00;;;;10084563;29;20216;-82
2023/01/30 22:03:48;;;;;;;23.03;5.40;;;;;3.50;102112.00;;;;10089018;29;20283;-80
2023/01/30 22:08:57;;;;;;;14.33;5.03;;;;;3.50;102110.00;;;;10068440;29;20219;-81
2023/01/30 22:14:00;;;;;;;18.07;5.27;;;;;3.40;102100.00;;;;10108156;29;20207;-82
2023/01/30 22:19:03;;;;;;;16.57;4.87;;;;;3.30;102111.00;;;;10100040;29;20200;-80
2023/01/30 22:24:07;;;;;;;17.47;5.47;;;;;3.20;102108.00;;;;10092909;29;20278;-80
2023/01/30 22:29:09;;;;;;;12.23;4.77;;;;;3.20;102101.00;;;;10099993;29;20218;-81
2023/01/30 22:34:11;;;;;;;18.57;5.73;;;;;3.10;102104.00;;;;10113949;29;20263;-81
2023/01/30 22:39:13;;;;;;;13.97;5.93;;;;;3.10;102103.00;;;;10084646;29;20346;-80
2023/01/30 22:44:15;;;;;;;15.20;5.63;;;;;3.00;102098.00;;;;10114188;29;20237;-80
2023/01/30 22:49:17;;;;;;;13.40;5.37;;;;;2.90;102103.00;;;;10113020;29;20328;-80
2023/01/30 22:54:19;;;;;;;13.73;5.87;;;;;3.00;102104.00;;;;10098462;29;20698;-80
2023/01/30 22:59:21;;;;;;;18.70;6.63;;;;;3.00;102104.00;;;;10067543;29;20207;-80
2023/01/30 23:04:23;;;;;;;15.97;5.53;;;;;3.10;102109.00;;;;10079239;29;20318;-80
2023/01/30 23:09:25;;;;;;;17.87;6.30;;;;;3.30;102108.00;;;;10067024;29;20258;-81
2023/01/30 23:14:27;;;;;;;19.63;5.73;;;;;3.50;102101.00;;;;10101546;29;20215;-80
2023/01/30 23:19:29;;;;;;;19.23;6.03;;;;;3.70;102098.00;;;;10104666;29;20207;-81
2023/01/30 23:24:31;;;;;;;20.60;6.13;;;;;3.90;102094.00;;;;10104279;29;20272;-80
2023/01/30 23:29:33;;;;;;;22.33;5.63;;;;;4.00;102088.00;;;;10097785;29;20212;-81
2023/01/30 23:34:35;;;;;;;17.80;5.53;;;;;4.00;102085.00;;;;10075463;29;20210;-80
2023/01/30 23:39:37;;;;;;;18.00;5.60;;;;;3.90;102085.00;;;;10088501;29;20207;-80
2023/01/30 23:44:39;;;;;;;20.13;5.30;;;;;3.80;102064.00;;;;10111556;29;20233;-80
2023/01/30 23:49:41;;;;;;;17.07;5.77;;;;;3.70;102063.00;;;;10095868;29;20302;-80
2023/01/30 23:54:43;;;;;;;18.20;5.27;;;;;3.50;102057.00;;;;10080004;29;20207;-81
2023/01/30 23:59:45;;;;;;;20.50;5.47;;;;;3.40;102044.00;;;;10109967;29;20211;-80
